sensor_id;sensor_type;location;lat;lon;timestamp;P1;durP1;ratioP1;P2;durP2;ratioP2
27558;SDS011;15002;52.028;5.670;2022-09-29T00:00:27;7.63;;;5.88;;
27558;SDS011;15002;52.028;5.670;2022-09-29T00:02:53;5.95;;;5.35;;
27558;SDS011;15002;52.028;5.670;2022-09-29T00:05:19;7.38;;;5.53;;
27558;SDS011;15002;52.028;5.670;2022-09-29T00:07:45;9.20;;;6.40;;
27558;SDS011;15002;52.028;5.670;2022-09-29T00:10:11;7.10;;;6.00;;
27558;SDS011;15002;52.028;5.670;2022-09-29T00:12:36;7.78;;;6.13;;
27558;SDS011;15002;52.028;5.670;2022-09-29T00:15:02;8.80;;;6.13;;
27558;SDS011;15002;52.028;5.670;2022-09-29T00:17:28;9.20;;;6.25;;
27558;SDS011;15002;52.028;5.670;2022-09-29T00:19:54;6.90;;;5.47;;
27558;SDS011;15002;52.028;5.670;2022-09-29T00:22:19;7.97;;;6.32;;
27558;SDS011;15002;52.028;5.670;2022-09-29T00:24:45;8.13;;;6.13;;
27558;SDS011;15002;52.028;5.670;2022-09-29T00:27:13;7.00;;;6.15;;
27558;SDS011;15002;52.028;5.670;2022-09-29T00:29:39;8.65;;;5.78;;
27558;SDS011;15002;52.028;5.670;2022-09-29T00:32:05;9.65;;;6.18;;
27558;SDS011;15002;52.028;5.670;2022-09-29T00:34:31;7.40;;;6.38;;
27558;SDS011;15002;52.028;5.670;2022-09-29T00:36:56;9.38;;;6.43;;
27558;SDS011;15002;52.028;5.670;2022-09-29T00:39:22;7.50;;;6.07;;
27558;SDS011;15002;52.028;5.670;2022-09-29T00:41:47;8.32;;;6.03;;
27558;SDS011;15002;52.028;5.670;2022-09-29T00:49:12;11.00;;;7.20;;
27558;SDS011;15002;52.028;5.670;2022-09-29T00:51:59;10.23;;;6.93;;
27558;SDS011;15002;52.028;5.670;2022-09-29T00:54:31;13.13;;;7.25;;
27558;SDS011;15002;52.028;5.670;2022-09-29T00:57:02;10.98;;;7.70;;
27558;SDS011;15002;52.028;5.670;2022-09-29T00:59:32;10.70;;;7.22;;
27558;SDS011;15002;52.028;5.670;2022-09-29T01:02:14;8.65;;;6.40;;
27558;SDS011;15002;52.028;5.670;2022-09-29T01:04:43;9.70;;;6.88;;
27558;SDS011;15002;52.028;5.670;2022-09-29T01:07:11;10.52;;;7.20;;
27558;SDS011;15002;52.028;5.670;2022-09-29T01:09:38;9.38;;;6.20;;
27558;SDS011;15002;52.028;5.670;2022-09-29T01:12:06;9.50;;;6.20;;
27558;SDS011;15002;52.028;5.670;2022-09-29T01:14:32;7.80;;;5.70;;
27558;SDS011;15002;52.028;5.670;2022-09-29T01:17:00;7.13;;;5.95;;
27558;SDS011;15002;52.028;5.670;2022-09-29T01:19:34;7.35;;;6.10;;
27558;SDS011;15002;52.028;5.670;2022-09-29T01:27:44;8.35;;;6.03;;
27558;SDS011;15002;52.028;5.670;2022-09-29T01:33:38;8.32;;;5.93;;
27558;SDS011;15002;52.028;5.670;2022-09-29T01:37:02;8.05;;;6.45;;
27558;SDS011;15002;52.028;5.670;2022-09-29T01:42:39;10.27;;;7.00;;
27558;SDS011;15002;52.028;5.670;2022-09-29T01:47:50;9.85;;;7.10;;
27558;SDS011;15002;52.028;5.670;2022-09-29T01:50:29;10.43;;;6.53;;
27558;SDS011;15002;52.028;5.670;2022-09-29T01:53:00;11.95;;;6.55;;
27558;SDS011;15002;52.028;5.670;2022-09-29T01:55:37;11.32;;;6.60;;
27558;SDS011;15002;52.028;5.670;2022-09-29T01:58:15;13.73;;;7.15;;
27558;SDS011;15002;52.028;5.670;2022-09-29T02:00:46;8.90;;;7.07;;
27558;SDS011;15002;52.028;5.670;2022-09-29T02:03:37;8.85;;;6.88;;
27558;SDS011;15002;52.028;5.670;2022-09-29T02:06:07;11.80;;;6.80;;
27558;SDS011;15002;52.028;5.670;2022-09-29T02:08:41;9.63;;;6.72;;
27558;SDS011;15002;52.028;5.670;2022-09-29T02:13:40;10.00;;;7.82;;
27558;SDS011;15002;52.028;5.670;2022-09-29T02:16:10;10.18;;;7.00;;
27558;SDS011;15002;52.028;5.670;2022-09-29T02:21:14;11.20;;;7.10;;
27558;SDS011;15002;52.028;5.670;2022-09-29T02:23:39;11.15;;;7.45;;
27558;SDS011;15002;52.028;5.670;2022-09-29T02:26:05;8.30;;;7.40;;
27558;SDS011;15002;52.028;5.670;2022-09-29T02:28:31;11.27;;;7.88;;
27558;SDS011;15002;52.028;5.670;2022-09-29T02:30:57;9.75;;;7.90;;
27558;SDS011;15002;52.028;5.670;2022-09-29T02:33:23;10.50;;;7.90;;
27558;SDS011;15002;52.028;5.670;2022-09-29T02:38:54;11.40;;;7.68;;
27558;SDS011;15002;52.028;5.670;2022-09-29T02:41:45;9.95;;;7.60;;
27558;SDS011;15002;52.028;5.670;2022-09-29T02:44:35;10.70;;;7.30;;
27558;SDS011;15002;52.028;5.670;2022-09-29T02:47:09;10.27;;;8.48;;
27558;SDS011;15002;52.028;5.670;2022-09-29T02:53:11;11.05;;;8.75;;
27558;SDS011;15002;52.028;5.670;2022-09-29T02:58:46;11.32;;;8.15;;
27558;SDS011;15002;52.028;5.670;2022-09-29T03:01:18;10.15;;;8.30;;
27558;SDS011;15002;52.028;5.670;2022-09-29T03:03:43;12.50;;;8.82;;
27558;SDS011;15002;52.028;5.670;2022-09-29T03:06:09;10.98;;;8.85;;
27558;SDS011;15002;52.028;5.670;2022-09-29T03:08:37;12.80;;;9.25;;
27558;SDS011;15002;52.028;5.670;2022-09-29T03:11:02;11.68;;;8.82;;
27558;SDS011;15002;52.028;5.670;2022-09-29T03:13:28;12.00;;;8.77;;
27558;SDS011;15002;52.028;5.670;2022-09-29T03:15:54;10.45;;;8.38;;
27558;SDS011;15002;52.028;5.670;2022-09-29T03:18:19;13.48;;;9.52;;
27558;SDS011;15002;52.028;5.670;2022-09-29T03:20:47;12.98;;;9.50;;
27558;SDS011;15002;52.028;5.670;2022-09-29T03:23:12;12.68;;;9.15;;
27558;SDS011;15002;52.028;5.670;2022-09-29T03:25:38;12.00;;;9.25;;
27558;SDS011;15002;52.028;5.670;2022-09-29T03:28:04;11.68;;;9.38;;
27558;SDS011;15002;52.028;5.670;2022-09-29T03:30:29;12.65;;;9.23;;
27558;SDS011;15002;52.028;5.670;2022-09-29T03:32:55;13.10;;;9.82;;
27558;SDS011;15002;52.028;5.670;2022-09-29T03:35:21;11.50;;;9.27;;
27558;SDS011;15002;52.028;5.670;2022-09-29T03:37:46;14.85;;;10.20;;
27558;SDS011;15002;52.028;5.670;2022-09-29T03:40:12;11.98;;;9.50;;
27558;SDS011;15002;52.028;5.670;2022-09-29T03:42:37;14.80;;;10.05;;
27558;SDS011;15002;52.028;5.670;2022-09-29T03:45:03;12.00;;;9.18;;
27558;SDS011;15002;52.028;5.670;2022-09-29T03:47:29;18.73;;;10.27;;
27558;SDS011;15002;52.028;5.670;2022-09-29T03:49:55;12.55;;;9.82;;
27558;SDS011;15002;52.028;5.670;2022-09-29T03:52:21;13.15;;;9.90;;
27558;SDS011;15002;52.028;5.670;2022-09-29T03:54:47;17.48;;;10.80;;
27558;SDS011;15002;52.028;5.670;2022-09-29T03:57:12;12.75;;;9.48;;
27558;SDS011;15002;52.028;5.670;2022-09-29T03:59:38;15.13;;;10.35;;
27558;SDS011;15002;52.028;5.670;2022-09-29T04:02:03;13.23;;;9.85;;
27558;SDS011;15002;52.028;5.670;2022-09-29T04:04:29;12.90;;;10.15;;
27558;SDS011;15002;52.028;5.670;2022-09-29T04:06:55;13.15;;;9.35;;
27558;SDS011;15002;52.028;5.670;2022-09-29T04:09:20;17.17;;;9.80;;
27558;SDS011;15002;52.028;5.670;2022-09-29T04:11:46;12.95;;;10.15;;
27558;SDS011;15002;52.028;5.670;2022-09-29T04:14:16;13.82;;;10.05;;
27558;SDS011;15002;52.028;5.670;2022-09-29T04:16:42;12.57;;;10.25;;
27558;SDS011;15002;52.028;5.670;2022-09-29T04:19:07;11.65;;;9.70;;
27558;SDS011;15002;52.028;5.670;2022-09-29T04:21:33;15.18;;;10.02;;
27558;SDS011;15002;52.028;5.670;2022-09-29T04:23:58;12.18;;;9.77;;
27558;SDS011;15002;52.028;5.670;2022-09-29T04:26:24;14.85;;;10.70;;
27558;SDS011;15002;52.028;5.670;2022-09-29T04:28:50;13.27;;;10.32;;
27558;SDS011;15002;52.028;5.670;2022-09-29T04:31:15;16.10;;;9.93;;
27558;SDS011;15002;52.028;5.670;2022-09-29T04:33:41;13.68;;;9.98;;
27558;SDS011;15002;52.028;5.670;2022-09-29T04:36:07;13.52;;;10.60;;
27558;SDS011;15002;52.028;5.670;2022-09-29T04:38:32;15.00;;;10.27;;
27558;SDS011;15002;52.028;5.670;2022-09-29T04:40:58;17.02;;;10.70;;
27558;SDS011;15002;52.028;5.670;2022-09-29T04:43:24;12.65;;;9.95;;
27558;SDS011;15002;52.028;5.670;2022-09-29T04:45:49;15.13;;;10.60;;
27558;SDS011;15002;52.028;5.670;2022-09-29T04:48:15;16.13;;;10.88;;
27558;SDS011;15002;52.028;5.670;2022-09-29T04:50:41;13.82;;;10.88;;
27558;SDS011;15002;52.028;5.670;2022-09-29T04:53:08;14.30;;;10.00;;
27558;SDS011;15002;52.028;5.670;2022-09-29T04:55:38;15.93;;;10.63;;
27558;SDS011;15002;52.028;5.670;2022-09-29T04:58:04;13.60;;;10.55;;
27558;SDS011;15002;52.028;5.670;2022-09-29T05:00:30;13.60;;;10.45;;
27558;SDS011;15002;52.028;5.670;2022-09-29T05:02:56;17.75;;;13.02;;
27558;SDS011;15002;52.028;5.670;2022-09-29T05:05:22;18.60;;;12.02;;
27558;SDS011;15002;52.028;5.670;2022-09-29T05:07:48;15.00;;;10.07;;
27558;SDS011;15002;52.028;5.670;2022-09-29T05:10:13;14.88;;;10.30;;
27558;SDS011;15002;52.028;5.670;2022-09-29T05:12:40;20.00;;;10.50;;
27558;SDS011;15002;52.028;5.670;2022-09-29T05:15:05;15.88;;;11.32;;
27558;SDS011;15002;52.028;5.670;2022-09-29T05:17:32;19.13;;;12.35;;
27558;SDS011;15002;52.028;5.670;2022-09-29T05:19:57;19.77;;;11.23;;
27558;SDS011;15002;52.028;5.670;2022-09-29T05:22:23;17.63;;;11.48;;
27558;SDS011;15002;52.028;5.670;2022-09-29T05:24:50;17.90;;;11.95;;
27558;SDS011;15002;52.028;5.670;2022-09-29T05:27:16;19.83;;;12.00;;
27558;SDS011;15002;52.028;5.670;2022-09-29T05:29:42;15.75;;;11.10;;
27558;SDS011;15002;52.028;5.670;2022-09-29T05:32:07;19.40;;;11.90;;
27558;SDS011;15002;52.028;5.670;2022-09-29T05:34:33;17.92;;;12.52;;
27558;SDS011;15002;52.028;5.670;2022-09-29T05:36:58;18.30;;;12.65;;
27558;SDS011;15002;52.028;5.670;2022-09-29T05:39:24;20.48;;;11.73;;
27558;SDS011;15002;52.028;5.670;2022-09-29T05:41:50;16.50;;;11.85;;
27558;SDS011;15002;52.028;5.670;2022-09-29T05:44:16;20.85;;;12.02;;
27558;SDS011;15002;52.028;5.670;2022-09-29T05:46:41;18.42;;;11.75;;
27558;SDS011;15002;52.028;5.670;2022-09-29T05:49:07;20.13;;;11.23;;
27558;SDS011;15002;52.028;5.670;2022-09-29T05:51:34;16.95;;;11.15;;
27558;SDS011;15002;52.028;5.670;2022-09-29T05:53:59;21.38;;;11.02;;
27558;SDS011;15002;52.028;5.670;2022-09-29T05:56:25;22.33;;;11.52;;
27558;SDS011;15002;52.028;5.670;2022-09-29T05:58:52;18.00;;;11.30;;
27558;SDS011;15002;52.028;5.670;2022-09-29T06:01:22;19.38;;;10.90;;
27558;SDS011;15002;52.028;5.670;2022-09-29T06:03:49;20.73;;;10.75;;
27558;SDS011;15002;52.028;5.670;2022-09-29T06:06:18;18.85;;;10.63;;
27558;SDS011;15002;52.028;5.670;2022-09-29T06:08:46;14.90;;;10.57;;
27558;SDS011;15002;52.028;5.670;2022-09-29T06:11:14;21.40;;;10.52;;
27558;SDS011;15002;52.028;5.670;2022-09-29T06:13:43;19.10;;;10.65;;
27558;SDS011;15002;52.028;5.670;2022-09-29T06:16:11;17.77;;;11.85;;
27558;SDS011;15002;52.028;5.670;2022-09-29T06:18:37;15.52;;;10.75;;
27558;SDS011;15002;52.028;5.670;2022-09-29T06:21:04;15.90;;;10.15;;
27558;SDS011;15002;52.028;5.670;2022-09-29T06:23:31;15.57;;;11.00;;
27558;SDS011;15002;52.028;5.670;2022-09-29T06:25:58;19.38;;;11.30;;
27558;SDS011;15002;52.028;5.670;2022-09-29T06:28:26;16.35;;;10.05;;
27558;SDS011;15002;52.028;5.670;2022-09-29T06:30:55;14.18;;;10.52;;
27558;SDS011;15002;52.028;5.670;2022-09-29T06:33:23;15.43;;;10.25;;
27558;SDS011;15002;52.028;5.670;2022-09-29T06:35:49;17.63;;;10.32;;
27558;SDS011;15002;52.028;5.670;2022-09-29T06:38:33;18.67;;;11.57;;
27558;SDS011;15002;52.028;5.670;2022-09-29T06:40:59;15.68;;;10.27;;
27558;SDS011;15002;52.028;5.670;2022-09-29T06:43:25;16.92;;;10.90;;
27558;SDS011;15002;52.028;5.670;2022-09-29T06:45:50;18.50;;;10.52;;
27558;SDS011;15002;52.028;5.670;2022-09-29T06:48:16;14.30;;;10.10;;
27558;SDS011;15002;52.028;5.670;2022-09-29T06:50:42;14.73;;;10.15;;
27558;SDS011;15002;52.028;5.670;2022-09-29T06:53:07;15.50;;;9.80;;
27558;SDS011;15002;52.028;5.670;2022-09-29T06:55:33;13.57;;;9.38;;
27558;SDS011;15002;52.028;5.670;2022-09-29T06:57:59;12.88;;;9.38;;
27558;SDS011;15002;52.028;5.670;2022-09-29T07:00:24;11.07;;;8.90;;
27558;SDS011;15002;52.028;5.670;2022-09-29T07:02:50;13.27;;;9.35;;
27558;SDS011;15002;52.028;5.670;2022-09-29T07:05:16;15.98;;;10.18;;
27558;SDS011;15002;52.028;5.670;2022-09-29T07:07:41;13.15;;;10.10;;
27558;SDS011;15002;52.028;5.670;2022-09-29T07:10:07;16.40;;;10.60;;
27558;SDS011;15002;52.028;5.670;2022-09-29T07:12:33;14.13;;;10.40;;
27558;SDS011;15002;52.028;5.670;2022-09-29T07:14:59;17.85;;;11.77;;
27558;SDS011;15002;52.028;5.670;2022-09-29T07:17:25;16.10;;;10.98;;
27558;SDS011;15002;52.028;5.670;2022-09-29T07:19:51;16.08;;;11.65;;
27558;SDS011;15002;52.028;5.670;2022-09-29T07:22:19;20.88;;;12.90;;
27558;SDS011;15002;52.028;5.670;2022-09-29T07:24:45;22.65;;;13.13;;
27558;SDS011;15002;52.028;5.670;2022-09-29T07:27:11;19.20;;;12.80;;
27558;SDS011;15002;52.028;5.670;2022-09-29T07:29:37;19.75;;;14.00;;
27558;SDS011;15002;52.028;5.670;2022-09-29T07:32:03;17.88;;;12.82;;
27558;SDS011;15002;52.028;5.670;2022-09-29T07:34:28;21.23;;;13.25;;
27558;SDS011;15002;52.028;5.670;2022-09-29T07:36:54;17.30;;;12.63;;
27558;SDS011;15002;52.028;5.670;2022-09-29T07:39:20;17.10;;;13.00;;
27558;SDS011;15002;52.028;5.670;2022-09-29T07:41:46;22.90;;;14.25;;
27558;SDS011;15002;52.028;5.670;2022-09-29T07:44:12;20.65;;;14.07;;
27558;SDS011;15002;52.028;5.670;2022-09-29T07:46:38;17.45;;;13.63;;
27558;SDS011;15002;52.028;5.670;2022-09-29T07:49:03;20.08;;;14.90;;
27558;SDS011;15002;52.028;5.670;2022-09-29T07:51:29;21.23;;;14.20;;
27558;SDS011;15002;52.028;5.670;2022-09-29T07:53:59;21.17;;;15.48;;
27558;SDS011;15002;52.028;5.670;2022-09-29T07:56:26;22.83;;;16.67;;
27558;SDS011;15002;52.028;5.670;2022-09-29T07:58:52;21.55;;;17.08;;
27558;SDS011;15002;52.028;5.670;2022-09-29T08:01:19;22.13;;;17.00;;
27558;SDS011;15002;52.028;5.670;2022-09-29T08:03:54;20.02;;;16.05;;
27558;SDS011;15002;52.028;5.670;2022-09-29T08:06:21;20.35;;;15.98;;
27558;SDS011;15002;52.028;5.670;2022-09-29T08:08:47;21.15;;;16.00;;
27558;SDS011;15002;52.028;5.670;2022-09-29T08:11:14;20.88;;;15.27;;
27558;SDS011;15002;52.028;5.670;2022-09-29T08:13:47;22.52;;;16.38;;
27558;SDS011;15002;52.028;5.670;2022-09-29T08:16:14;23.40;;;15.88;;
27558;SDS011;15002;52.028;5.670;2022-09-29T08:18:40;22.05;;;16.02;;
27558;SDS011;15002;52.028;5.670;2022-09-29T08:21:07;21.20;;;16.73;;
27558;SDS011;15002;52.028;5.670;2022-09-29T08:23:34;23.90;;;17.60;;
27558;SDS011;15002;52.028;5.670;2022-09-29T08:26:02;24.98;;;18.23;;
27558;SDS011;15002;52.028;5.670;2022-09-29T08:28:30;26.50;;;18.83;;
27558;SDS011;15002;52.028;5.670;2022-09-29T08:31:07;32.47;;;20.05;;
27558;SDS011;15002;52.028;5.670;2022-09-29T08:33:35;30.63;;;19.88;;
27558;SDS011;15002;52.028;5.670;2022-09-29T08:36:02;31.40;;;21.58;;
27558;SDS011;15002;52.028;5.670;2022-09-29T08:38:38;31.65;;;22.33;;
27558;SDS011;15002;52.028;5.670;2022-09-29T08:41:24;34.78;;;22.70;;
27558;SDS011;15002;52.028;5.670;2022-09-29T08:43:53;34.40;;;22.63;;
27558;SDS011;15002;52.028;5.670;2022-09-29T08:48:58;34.10;;;22.75;;
27558;SDS011;15002;52.028;5.670;2022-09-29T08:51:31;33.22;;;22.52;;
27558;SDS011;15002;52.028;5.670;2022-09-29T08:54:04;35.55;;;24.70;;
27558;SDS011;15002;52.028;5.670;2022-09-29T08:56:37;38.80;;;25.15;;
27558;SDS011;15002;52.028;5.670;2022-09-29T08:59:03;30.98;;;22.27;;
27558;SDS011;15002;52.028;5.670;2022-09-29T09:06:44;26.80;;;19.70;;
27558;SDS011;15002;52.028;5.670;2022-09-29T09:12:16;31.58;;;20.85;;
27558;SDS011;15002;52.028;5.670;2022-09-29T09:14:50;27.10;;;20.25;;
27558;SDS011;15002;52.028;5.670;2022-09-29T09:26:07;32.85;;;22.38;;
27558;SDS011;15002;52.028;5.670;2022-09-29T09:28:36;31.55;;;22.40;;
27558;SDS011;15002;52.028;5.670;2022-09-29T09:31:20;32.22;;;22.85;;
27558;SDS011;15002;52.028;5.670;2022-09-29T09:34:02;32.63;;;22.67;;
27558;SDS011;15002;52.028;5.670;2022-09-29T09:36:49;31.17;;;21.98;;
27558;SDS011;15002;52.028;5.670;2022-09-29T09:42:13;26.52;;;21.00;;
27558;SDS011;15002;52.028;5.670;2022-09-29T09:44:46;27.88;;;21.80;;
27558;SDS011;15002;52.028;5.670;2022-09-29T09:47:48;28.27;;;21.63;;
27558;SDS011;15002;52.028;5.670;2022-09-29T09:50:19;30.60;;;22.33;;
27558;SDS011;15002;52.028;5.670;2022-09-29T09:52:59;29.13;;;21.63;;
27558;SDS011;15002;52.028;5.670;2022-09-29T09:55:29;28.23;;;20.97;;
27558;SDS011;15002;52.028;5.670;2022-09-29T10:03:07;33.92;;;22.52;;
27558;SDS011;15002;52.028;5.670;2022-09-29T10:05:34;32.65;;;22.85;;
27558;SDS011;15002;52.028;5.670;2022-09-29T10:08:03;31.33;;;22.75;;
27558;SDS011;15002;52.028;5.670;2022-09-29T10:10:31;34.75;;;22.58;;
27558;SDS011;15002;52.028;5.670;2022-09-29T10:13:00;32.97;;;22.33;;
27558;SDS011;15002;52.028;5.670;2022-09-29T10:15:30;33.85;;;22.60;;
27558;SDS011;15002;52.028;5.670;2022-09-29T10:18:03;33.47;;;23.55;;
27558;SDS011;15002;52.028;5.670;2022-09-29T10:20:36;34.40;;;22.50;;
27558;SDS011;15002;52.028;5.670;2022-09-29T10:23:19;34.10;;;23.10;;
27558;SDS011;15002;52.028;5.670;2022-09-29T10:26:03;33.17;;;23.92;;
27558;SDS011;15002;52.028;5.670;2022-09-29T10:31:23;32.33;;;21.95;;
27558;SDS011;15002;52.028;5.670;2022-09-29T10:33:54;25.17;;;19.27;;
27558;SDS011;15002;52.028;5.670;2022-09-29T10:36:22;28.23;;;20.67;;
27558;SDS011;15002;52.028;5.670;2022-09-29T10:38:53;27.10;;;20.65;;
27558;SDS011;15002;52.028;5.670;2022-09-29T10:41:22;34.88;;;22.83;;
27558;SDS011;15002;52.028;5.670;2022-09-29T10:43:49;28.58;;;21.35;;
27558;SDS011;15002;52.028;5.670;2022-09-29T10:49:21;28.73;;;21.13;;
27558;SDS011;15002;52.028;5.670;2022-09-29T10:52:02;25.67;;;19.60;;
27558;SDS011;15002;52.028;5.670;2022-09-29T10:54:36;21.70;;;15.18;;
27558;SDS011;15002;52.028;5.670;2022-09-29T10:57:19;26.27;;;17.75;;
27558;SDS011;15002;52.028;5.670;2022-09-29T10:59:50;22.38;;;17.00;;
27558;SDS011;15002;52.028;5.670;2022-09-29T11:02:31;23.00;;;18.58;;
27558;SDS011;15002;52.028;5.670;2022-09-29T11:05:02;22.85;;;18.83;;
27558;SDS011;15002;52.028;5.670;2022-09-29T11:07:30;20.35;;;15.98;;
27558;SDS011;15002;52.028;5.670;2022-09-29T11:09:58;17.45;;;12.93;;
27558;SDS011;15002;52.028;5.670;2022-09-29T11:12:33;15.90;;;13.25;;
27558;SDS011;15002;52.028;5.670;2022-09-29T11:15:45;13.50;;;10.88;;
27558;SDS011;15002;52.028;5.670;2022-09-29T11:17:53;19.63;;;15.85;;
27558;SDS011;15002;52.028;5.670;2022-09-29T11:20:21;20.00;;;16.13;;
27558;SDS011;15002;52.028;5.670;2022-09-29T11:36:56;14.32;;;11.25;;
27558;SDS011;15002;52.028;5.670;2022-09-29T11:39:45;12.73;;;10.38;;
27558;SDS011;15002;52.028;5.670;2022-09-29T11:45:04;12.82;;;10.27;;
27558;SDS011;15002;52.028;5.670;2022-09-29T11:50:12;11.18;;;9.48;;
27558;SDS011;15002;52.028;5.670;2022-09-29T11:58:03;7.28;;;6.47;;
27558;SDS011;15002;52.028;5.670;2022-09-29T12:03:30;11.77;;;9.43;;
27558;SDS011;15002;52.028;5.670;2022-09-29T12:06:14;10.55;;;8.85;;
27558;SDS011;15002;52.028;5.670;2022-09-29T12:11:54;12.68;;;9.80;;
27558;SDS011;15002;52.028;5.670;2022-09-29T12:14:42;11.68;;;10.30;;
27558;SDS011;15002;52.028;5.670;2022-09-29T12:17:21;11.95;;;10.20;;
27558;SDS011;15002;52.028;5.670;2022-09-29T12:19:49;11.20;;;10.00;;
27558;SDS011;15002;52.028;5.670;2022-09-29T12:22:24;11.10;;;9.45;;
27558;SDS011;15002;52.028;5.670;2022-09-29T12:24:50;11.23;;;10.07;;
27558;SDS011;15002;52.028;5.670;2022-09-29T12:27:31;12.23;;;9.65;;
27558;SDS011;15002;52.028;5.670;2022-09-29T12:30:08;12.65;;;9.68;;
27558;SDS011;15002;52.028;5.670;2022-09-29T12:32:49;9.82;;;8.82;;
27558;SDS011;15002;52.028;5.670;2022-09-29T12:35:24;6.72;;;5.90;;
27558;SDS011;15002;52.028;5.670;2022-09-29T12:38:11;6.65;;;5.88;;
27558;SDS011;15002;52.028;5.670;2022-09-29T12:46:37;5.97;;;4.80;;
27558;SDS011;15002;52.028;5.670;2022-09-29T12:49:28;6.53;;;5.10;;
27558;SDS011;15002;52.028;5.670;2022-09-29T12:52:14;6.07;;;3.28;;
27558;SDS011;15002;52.028;5.670;2022-09-29T12:54:53;4.47;;;3.13;;
27558;SDS011;15002;52.028;5.670;2022-09-29T12:57:27;3.38;;;3.05;;
27558;SDS011;15002;52.028;5.670;2022-09-29T13:00:00;5.32;;;4.65;;
27558;SDS011;15002;52.028;5.670;2022-09-29T13:29:11;3.30;;;3.00;;
27558;SDS011;15002;52.028;5.670;2022-09-29T13:31:40;2.88;;;2.58;;
27558;SDS011;15002;52.028;5.670;2022-09-29T13:34:15;4.38;;;3.88;;
27558;SDS011;15002;52.028;5.670;2022-09-29T13:36:47;3.25;;;2.53;;
27558;SDS011;15002;52.028;5.670;2022-09-29T13:39:18;6.00;;;2.50;;
27558;SDS011;15002;52.028;5.670;2022-09-29T13:41:46;2.80;;;2.47;;
27558;SDS011;15002;52.028;5.670;2022-09-29T13:46:41;3.33;;;3.03;;
27558;SDS011;15002;52.028;5.670;2022-09-29T14:05:02;6.05;;;4.85;;
27558;SDS011;15002;52.028;5.670;2022-09-29T14:07:47;8.20;;;4.18;;
27558;SDS011;15002;52.028;5.670;2022-09-29T14:10:28;6.00;;;4.20;;
27558;SDS011;15002;52.028;5.670;2022-09-29T14:16:14;5.07;;;4.00;;
27558;SDS011;15002;52.028;5.670;2022-09-29T14:19:04;4.93;;;4.40;;
27558;SDS011;15002;52.028;5.670;2022-09-29T14:21:46;5.20;;;4.70;;
27558;SDS011;15002;52.028;5.670;2022-09-29T14:29:49;10.60;;;7.43;;
27558;SDS011;15002;52.028;5.670;2022-09-29T14:32:20;14.77;;;9.80;;
27558;SDS011;15002;52.028;5.670;2022-09-29T14:34:51;15.32;;;9.10;;
27558;SDS011;15002;52.028;5.670;2022-09-29T14:37:18;11.85;;;8.25;;
27558;SDS011;15002;52.028;5.670;2022-09-29T14:39:47;11.18;;;8.32;;
27558;SDS011;15002;52.028;5.670;2022-09-29T14:42:33;14.52;;;9.88;;
27558;SDS011;15002;52.028;5.670;2022-09-29T14:44:59;9.02;;;8.07;;
27558;SDS011;15002;52.028;5.670;2022-09-29T14:50:50;8.95;;;7.53;;
27558;SDS011;15002;52.028;5.670;2022-09-29T14:54:19;9.27;;;8.38;;
27558;SDS011;15002;52.028;5.670;2022-09-29T14:56:51;8.27;;;7.38;;
27558;SDS011;15002;52.028;5.670;2022-09-29T15:04:38;9.52;;;8.15;;
27558;SDS011;15002;52.028;5.670;2022-09-29T15:07:04;8.95;;;7.82;;
27558;SDS011;15002;52.028;5.670;2022-09-29T15:09:35;8.80;;;7.47;;
27558;SDS011;15002;52.028;5.670;2022-09-29T15:12:01;11.00;;;7.55;;
27558;SDS011;15002;52.028;5.670;2022-09-29T15:14:32;8.77;;;7.00;;
27558;SDS011;15002;52.028;5.670;2022-09-29T15:25:35;6.68;;;5.75;;
27558;SDS011;15002;52.028;5.670;2022-09-29T15:28:15;6.53;;;5.75;;
27558;SDS011;15002;52.028;5.670;2022-09-29T15:30:43;7.15;;;5.88;;
27558;SDS011;15002;52.028;5.670;2022-09-29T15:36:05;8.93;;;5.65;;
27558;SDS011;15002;52.028;5.670;2022-09-29T15:41:23;6.93;;;6.20;;
27558;SDS011;15002;52.028;5.670;2022-09-29T15:43:53;10.57;;;7.22;;
27558;SDS011;15002;52.028;5.670;2022-09-29T15:46:23;6.78;;;5.88;;
27558;SDS011;15002;52.028;5.670;2022-09-29T15:49:09;7.65;;;5.18;;
27558;SDS011;15002;52.028;5.670;2022-09-29T15:51:38;7.15;;;5.20;;
27558;SDS011;15002;52.028;5.670;2022-09-29T15:54:05;8.15;;;5.80;;
27558;SDS011;15002;52.028;5.670;2022-09-29T15:56:34;8.88;;;6.25;;
27558;SDS011;15002;52.028;5.670;2022-09-29T16:02:23;6.45;;;5.35;;
27558;SDS011;15002;52.028;5.670;2022-09-29T16:04:52;9.85;;;6.15;;
27558;SDS011;15002;52.028;5.670;2022-09-29T16:07:21;8.10;;;5.97;;
27558;SDS011;15002;52.028;5.670;2022-09-29T16:09:56;8.23;;;5.65;;
27558;SDS011;15002;52.028;5.670;2022-09-29T16:15:30;6.70;;;5.35;;
27558;SDS011;15002;52.028;5.670;2022-09-29T16:18:07;7.53;;;5.32;;
27558;SDS011;15002;52.028;5.670;2022-09-29T16:20:45;7.22;;;5.35;;
27558;SDS011;15002;52.028;5.670;2022-09-29T16:23:16;10.77;;;5.22;;
27558;SDS011;15002;52.028;5.670;2022-09-29T16:26:32;8.63;;;5.50;;
27558;SDS011;15002;52.028;5.670;2022-09-29T16:29:03;9.27;;;5.40;;
27558;SDS011;15002;52.028;5.670;2022-09-29T16:31:47;8.02;;;5.45;;
27558;SDS011;15002;52.028;5.670;2022-09-29T16:37:00;9.10;;;5.57;;
27558;SDS011;15002;52.028;5.670;2022-09-29T16:39:32;7.22;;;5.25;;
27558;SDS011;15002;52.028;5.670;2022-09-29T16:45:03;8.25;;;4.88;;
27558;SDS011;15002;52.028;5.670;2022-09-29T16:47:31;6.38;;;4.95;;
27558;SDS011;15002;52.028;5.670;2022-09-29T16:49:58;9.73;;;5.32;;
27558;SDS011;15002;52.028;5.670;2022-09-29T16:58:01;10.30;;;5.55;;
27558;SDS011;15002;52.028;5.670;2022-09-29T17:00:29;12.32;;;6.38;;
27558;SDS011;15002;52.028;5.670;2022-09-29T17:02:55;9.98;;;6.78;;
27558;SDS011;15002;52.028;5.670;2022-09-29T17:05:27;11.20;;;6.90;;
27558;SDS011;15002;52.028;5.670;2022-09-29T17:08:00;10.57;;;7.22;;
27558;SDS011;15002;52.028;5.670;2022-09-29T17:10:27;13.25;;;6.18;;
27558;SDS011;15002;52.028;5.670;2022-09-29T17:12:53;15.35;;;5.60;;
27558;SDS011;15002;52.028;5.670;2022-09-29T17:15:19;7.13;;;4.47;;
27558;SDS011;15002;52.028;5.670;2022-09-29T17:17:46;12.23;;;5.53;;
27558;SDS011;15002;52.028;5.670;2022-09-29T17:20:18;10.00;;;5.00;;
27558;SDS011;15002;52.028;5.670;2022-09-29T17:22:45;7.82;;;4.85;;
27558;SDS011;15002;52.028;5.670;2022-09-29T17:25:11;13.35;;;5.38;;
27558;SDS011;15002;52.028;5.670;2022-09-29T17:27:38;8.10;;;4.78;;
27558;SDS011;15002;52.028;5.670;2022-09-29T17:30:23;11.98;;;4.60;;
27558;SDS011;15002;52.028;5.670;2022-09-29T17:32:52;10.23;;;4.75;;
27558;SDS011;15002;52.028;5.670;2022-09-29T17:35:19;9.75;;;4.80;;
27558;SDS011;15002;52.028;5.670;2022-09-29T17:37:48;11.02;;;4.50;;
27558;SDS011;15002;52.028;5.670;2022-09-29T17:40:21;6.00;;;4.05;;
27558;SDS011;15002;52.028;5.670;2022-09-29T17:42:48;7.50;;;4.82;;
27558;SDS011;15002;52.028;5.670;2022-09-29T17:45:14;11.05;;;5.60;;
27558;SDS011;15002;52.028;5.670;2022-09-29T17:47:42;9.88;;;5.40;;
27558;SDS011;15002;52.028;5.670;2022-09-29T17:52:57;10.27;;;5.47;;
27558;SDS011;15002;52.028;5.670;2022-09-29T17:55:23;10.25;;;6.05;;
27558;SDS011;15002;52.028;5.670;2022-09-29T17:57:50;9.48;;;5.78;;
27558;SDS011;15002;52.028;5.670;2022-09-29T18:00:27;10.95;;;5.40;;
27558;SDS011;15002;52.028;5.670;2022-09-29T18:02:57;9.60;;;5.38;;
27558;SDS011;15002;52.028;5.670;2022-09-29T18:05:23;10.20;;;5.70;;
27558;SDS011;15002;52.028;5.670;2022-09-29T18:07:51;13.23;;;5.82;;
27558;SDS011;15002;52.028;5.670;2022-09-29T18:12:51;9.38;;;6.13;;
27558;SDS011;15002;52.028;5.670;2022-09-29T18:15:17;12.52;;;6.05;;